Time;durP1;ratioP1;P1;durP2;ratioP2;P2;SDS_P1;SDS_P2;PMS_P1;PMS_P2;Temp;Humidity;BMP_temperature;BMP_pressure;BME280_temperature;BME280_humidity;BME280_pressure;Samples;Min_cycle;Max_cycle;Signal;HPM_P1;HPM_P2
2022/04/24 00:02:12;;;;;;;24.10;20.67;;;14.80;77.50;;;;;;5133262;27;20023;-67
2022/04/24 00:04:40;;;;;;;22.92;20.23;;;14.80;77.60;;;;;;5133724;27;20214;-52
2022/04/24 00:07:08;;;;;;;23.33;20.88;;;14.80;77.60;;;;;;5133358;27;20380;-51
2022/04/24 00:09:34;;;;;;;23.15;19.67;;;14.90;77.60;;;;;;5114930;27;20011;-52
2022/04/24 00:12:00;;;;;;;24.40;20.48;;;14.90;77.60;;;;;;5131151;27;20525;-57
2022/04/24 00:14:27;;;;;;;24.67;21.15;;;14.80;77.70;;;;;;5130167;27;20472;-54
2022/04/24 00:16:53;;;;;;;22.52;20.20;;;14.80;77.70;;;;;;5133600;27;20026;-57
2022/04/24 00:19:19;;;;;;;21.83;19.63;;;14.90;77.50;;;;;;5132904;27;20107;-53
2022/04/24 00:21:45;;;;;;;23.02;20.60;;;15.00;77.30;;;;;;5133199;27;20019;-53
2022/04/24 00:24:11;;;;;;;30.88;22.45;;;15.00;77.00;;;;;;5114428;27;20052;-69
2022/04/24 00:26:38;;;;;;;24.83;21.80;;;15.00;76.90;;;;;;5133097;27;20027;-54
2022/04/24 00:29:03;;;;;;;30.10;22.02;;;15.00;76.80;;;;;;5133614;27;20027;-56
2022/04/24 00:31:29;;;;;;;23.35;20.92;;;15.00;76.80;;;;;;5114746;27;20028;-55
2022/04/24 00:33:55;;;;;;;25.67;22.05;;;15.00;76.80;;;;;;5133601;27;20376;-55
2022/04/24 00:36:21;;;;;;;26.55;21.35;;;15.00;76.80;;;;;;5132972;27;20376;-56
2022/04/24 00:38:46;;;;;;;24.92;22.27;;;15.00;76.50;;;;;;5115163;27;20123;-56
2022/04/24 00:41:12;;;;;;;25.10;22.40;;;15.00;76.40;;;;;;5114478;27;20098;-71
2022/04/24 00:43:38;;;;;;;26.00;22.10;;;15.00;76.40;;;;;;5133264;27;20103;-53
2022/04/24 00:46:16;;;;;;;25.23;22.52;;;15.00;76.40;;;;;;5133098;27;20107;-52
2022/04/24 00:48:43;;;;;;;24.92;21.88;;;15.00;76.50;;;;;;5132933;27;20110;-54
2022/04/24 00:51:09;;;;;;;25.70;22.92;;;15.00;76.70;;;;;;5114376;27;20024;-54
2022/04/24 00:53:36;;;;;;;25.10;22.40;;;15.00;76.80;;;;;;5113617;27;20039;-56
2022/04/24 00:56:02;;;;;;;23.98;21.45;;;15.00;76.80;;;;;;5114769;27;20268;-54
2022/04/24 00:58:28;;;;;;;28.48;23.15;;;15.00;76.80;;;;;;5114255;27;20098;-59
2022/04/24 01:00:56;;;;;;;26.38;22.40;;;14.90;76.80;;;;;;5114165;27;20111;-50
2022/04/24 01:03:23;;;;;;;25.30;22.13;;;14.80;77.00;;;;;;5131921;27;20028;-53
2022/04/24 01:05:48;;;;;;;23.85;21.27;;;14.80;77.20;;;;;;5132844;27;20394;-56
2022/04/24 01:08:14;;;;;;;25.52;21.75;;;14.70;77.50;;;;;;5132044;27;20498;-65
2022/04/24 01:10:41;;;;;;;24.52;21.52;;;14.70;77.80;;;;;;5132396;27;20514;-54
2022/04/24 01:13:07;;;;;;;23.75;21.20;;;14.70;77.90;;;;;;5114067;27;20038;-54
2022/04/24 01:15:33;;;;;;;23.75;21.25;;;14.70;77.80;;;;;;5113291;27;20019;-53
2022/04/24 01:18:18;;;;;;;25.23;21.02;;;14.70;77.70;;;;;;5132802;27;20047;-52
2022/04/24 01:20:44;;;;;;;26.50;21.33;;;14.70;77.70;;;;;;5132648;27;20047;-51
2022/04/24 01:23:10;;;;;;;25.27;20.65;;;14.60;77.80;;;;;;5132241;27;20479;-54
2022/04/24 01:25:35;;;;;;;22.55;18.95;;;14.50;78.10;;;;;;5132340;27;20329;-53
2022/04/24 01:28:20;;;;;;;22.02;18.77;;;14.40;78.70;;;;;;5114094;27;20390;-51
2022/04/24 01:30:45;;;;;;;22.02;19.63;;;14.40;79.10;;;;;;5132083;27;20027;-55
2022/04/24 01:33:11;;;;;;;22.25;19.50;;;14.40;79.00;;;;;;5132329;27;20027;-70
2022/04/24 01:35:37;;;;;;;22.73;19.02;;;14.40;79.20;;;;;;5132128;27;20035;-51
2022/04/24 01:38:02;;;;;;;21.48;18.17;;;14.30;79.60;;;;;;5111884;27;20054;-68
2022/04/24 01:40:28;;;;;;;22.75;19.23;;;14.20;80.50;;;;;;5126113;27;20398;-53
2022/04/24 01:42:54;;;;;;;22.95;18.30;;;14.10;80.40;;;;;;5126740;27;20043;-52
2022/04/24 01:45:19;;;;;;;23.95;20.00;;;14.00;80.60;;;;;;5126307;27;20459;-65
2022/04/24 01:47:45;;;;;;;25.98;20.08;;;13.90;80.80;;;;;;5127217;27;20015;-65
2022/04/24 01:50:11;;;;;;;23.00;19.17;;;13.80;80.90;;;;;;5126890;27;20053;-59
2022/04/24 01:52:36;;;;;;;22.65;18.00;;;13.80;81.50;;;;;;5107698;27;20023;-64
2022/04/24 01:55:02;;;;;;;22.25;18.10;;;13.70;81.90;;;;;;5126912;27;20361;-57
2022/04/24 01:57:28;;;;;;;21.33;17.95;;;13.70;81.70;;;;;;5126287;27;20015;-67
2022/04/24 01:59:54;;;;;;;20.60;17.95;;;13.70;81.70;;;;;;5127667;27;20072;-66
2022/04/24 02:02:19;;;;;;;21.35;18.25;;;13.60;82.00;;;;;;5126150;27;20084;-56
2022/04/24 02:04:45;;;;;;;20.73;17.52;;;13.50;82.40;;;;;;5108538;28;20022;-61
2022/04/24 02:07:11;;;;;;;19.75;17.60;;;13.50;82.50;;;;;;5108791;28;20058;-62
2022/04/24 02:09:38;;;;;;;22.38;17.55;;;13.50;82.40;;;;;;5126291;27;20015;-58
2022/04/24 02:12:05;;;;;;;21.58;17.90;;;13.50;82.60;;;;;;5107803;28;20023;-69
2022/04/24 02:14:31;;;;;;;20.92;18.02;;;13.40;83.20;;;;;;5131667;27;20051;-51
2022/04/24 02:16:57;;;;;;;22.95;17.42;;;13.30;83.20;;;;;;5113191;27;20048;-63
2022/04/24 02:19:22;;;;;;;22.27;17.70;;;13.30;83.40;;;;;;5111800;27;20085;-63
2022/04/24 02:21:48;;;;;;;20.27;16.95;;;13.30;83.50;;;;;;5112659;27;20039;-67
2022/04/24 02:24:15;;;;;;;20.02;16.77;;;13.30;83.30;;;;;;5130377;27;20115;-53
2022/04/24 02:26:40;;;;;;;30.00;22.17;;;13.30;83.20;;;;;;5130699;27;20019;-68
2022/04/24 02:29:06;;;;;;;20.35;16.92;;;13.30;83.10;;;;;;5129830;27;20023;-70
2022/04/24 02:31:32;;;;;;;17.75;15.63;;;13.40;83.10;;;;;;5131911;27;20202;-56
2022/04/24 02:33:58;;;;;;;21.65;16.42;;;13.40;82.90;;;;;;5130452;27;20027;-57
2022/04/24 02:36:23;;;;;;;18.17;16.27;;;13.40;82.90;;;;;;5130107;27;20074;-60
2022/04/24 02:38:49;;;;;;;17.27;15.23;;;13.40;83.00;;;;;;5112473;27;20029;-57
2022/04/24 02:41:15;;;;;;;18.35;16.30;;;13.30;83.00;;;;;;5110965;27;20133;-60
2022/04/24 02:43:40;;;;;;;18.20;15.45;;;13.40;82.90;;;;;;5111734;27;20377;-63
2022/04/24 02:46:06;;;;;;;19.08;15.93;;;13.40;82.60;;;;;;5130063;27;20041;-65
2022/04/24 02:48:32;;;;;;;20.67;16.00;;;13.40;82.40;;;;;;5130486;27;20030;-51
2022/04/24 02:50:57;;;;;;;16.73;14.90;;;13.40;82.40;;;;;;5111578;27;20030;-56
2022/04/24 02:53:23;;;;;;;17.02;15.10;;;13.40;82.60;;;;;;5129596;27;20533;-58
2022/04/24 02:55:49;;;;;;;16.98;14.40;;;13.50;82.50;;;;;;5112065;27;20037;-66
2022/04/24 02:58:14;;;;;;;17.50;14.38;;;13.50;82.20;;;;;;5130133;27;20488;-52
2022/04/24 03:00:43;;;;;;;18.33;14.93;;;13.50;82.10;;;;;;5134303;27;20527;-53
2022/04/24 03:03:10;;;;;;;16.02;13.77;;;13.50;82.00;;;;;;5116288;27;20026;-54
2022/04/24 03:05:36;;;;;;;17.23;14.15;;;13.40;81.90;;;;;;5135416;27;20026;-54
2022/04/24 03:08:02;;;;;;;16.35;14.38;;;13.40;81.90;;;;;;5135176;27;20034;-67
2022/04/24 03:10:47;;;;;;;17.63;15.25;;;13.30;82.60;;;;;;5134862;27;20031;-55
2022/04/24 03:13:13;;;;;;;20.02;14.25;;;13.40;82.20;;;;;;5133702;27;20024;-55
2022/04/24 03:15:39;;;;;;;19.67;15.52;;;13.30;82.10;;;;;;5116911;27;20041;-53
2022/04/24 03:18:06;;;;;;;17.58;14.32;;;13.30;82.10;;;;;;5116298;27;20531;-70
2022/04/24 03:20:31;;;;;;;17.42;14.93;;;13.20;82.30;;;;;;5116689;27;20122;-53
2022/04/24 03:22:57;;;;;;;17.75;14.50;;;13.20;82.40;;;;;;5116613;27;20182;-55
2022/04/24 03:25:23;;;;;;;18.70;15.15;;;13.20;82.70;;;;;;5114112;27;20027;-54
2022/04/24 03:27:49;;;;;;;15.35;13.68;;;13.20;82.70;;;;;;5134812;27;20057;-55
2022/04/24 03:30:15;;;;;;;16.33;13.95;;;13.20;82.70;;;;;;5133957;27;20138;-53
2022/04/24 03:32:41;;;;;;;16.95;15.02;;;13.30;82.60;;;;;;5134467;27;20027;-53
2022/04/24 03:35:09;;;;;;;17.10;13.88;;;13.20;82.30;;;;;;5134024;27;20023;-70
2022/04/24 03:37:38;;;;;;;17.85;14.85;;;13.20;82.30;;;;;;5116136;27;20016;-51
2022/04/24 03:40:05;;;;;;;16.13;14.43;;;13.30;82.30;;;;;;5134177;27;20015;-68
2022/04/24 03:42:32;;;;;;;16.20;13.68;;;13.30;82.10;;;;;;5115862;27;20510;-52
2022/04/24 03:44:58;;;;;;;15.25;13.02;;;13.20;82.00;;;;;;5134111;27;20031;-54
2022/04/24 03:47:25;;;;;;;17.92;15.23;;;13.20;82.10;;;;;;5133671;27;20030;-53
2022/04/24 03:49:51;;;;;;;15.63;13.23;;;13.20;82.10;;;;;;5115915;27;20113;-56
2022/04/24 03:52:17;;;;;;;19.25;14.43;;;13.20;82.20;;;;;;5133561;27;20023;-54
2022/04/24 03:54:43;;;;;;;16.38;14.02;;;13.20;82.20;;;;;;5115748;27;20023;-53
2022/04/24 03:57:09;;;;;;;16.58;13.48;;;13.20;82.20;;;;;;5115082;27;20046;-48
2022/04/24 03:59:35;;;;;;;16.70;13.73;;;13.20;82.30;;;;;;5134193;27;20070;-54
2022/04/24 04:02:02;;;;;;;17.35;12.77;;;13.20;82.20;;;;;;5115665;27;20043;-52
2022/04/24 04:04:28;;;;;;;15.65;13.40;;;13.10;82.40;;;;;;5115050;27;20031;-53
2022/04/24 04:06:54;;;;;;;16.05;13.73;;;13.00;82.80;;;;;;5115484;27;20049;-53
2022/04/24 04:09:19;;;;;;;19.00;13.75;;;13.00;82.90;;;;;;5133428;27;20083;-54
2022/04/24 04:11:45;;;;;;;17.83;12.95;;;13.00;83.00;;;;;;5133945;27;20023;-54
2022/04/24 04:14:11;;;;;;;16.55;13.77;;;13.00;83.10;;;;;;5114668;27;20128;-54
2022/04/24 04:16:37;;;;;;;15.93;12.77;;;13.00;83.00;;;;;;5115267;27;20027;-56
2022/04/24 04:19:03;;;;;;;16.85;13.20;;;13.00;83.30;;;;;;5115156;27;20023;-69
2022/04/24 04:21:28;;;;;;;17.17;13.18;;;13.10;83.30;;;;;;5114694;27;20112;-52
2022/04/24 04:23:54;;;;;;;14.30;12.00;;;13.10;83.20;;;;;;5114938;27;20380;-60
2022/04/24 04:26:20;;;;;;;16.90;13.18;;;13.10;83.00;;;;;;5132250;27;20024;-51
2022/04/24 04:28:46;;;;;;;17.95;12.30;;;13.10;82.90;;;;;;5133564;27;20020;-54
2022/04/24 04:31:13;;;;;;;14.07;11.75;;;13.20;82.70;;;;;;5132732;27;20027;-53
2022/04/24 04:33:39;;;;;;;13.73;12.13;;;13.20;82.60;;;;;;5114728;27;20027;-54
2022/04/24 04:36:06;;;;;;;16.67;12.82;;;13.30;82.40;;;;;;5132543;27;20489;-70
2022/04/24 04:38:32;;;;;;;16.05;12.38;;;13.30;82.20;;;;;;5114817;27;20051;-53
2022/04/24 04:40:58;;;;;;;15.50;12.90;;;13.40;82.00;;;;;;5133398;27;20045;-55
2022/04/24 04:43:26;;;;;;;14.20;12.70;;;13.40;81.90;;;;;;5132568;27;20654;-51
2022/04/24 04:45:52;;;;;;;16.58;12.90;;;13.50;81.80;;;;;;5114996;27;20023;-51
2022/04/24 04:48:37;;;;;;;16.35;12.57;;;13.50;81.50;;;;;;5132770;27;20019;-51
2022/04/24 04:51:02;;;;;;;14.95;12.05;;;13.60;81.20;;;;;;5114603;27;20088;-56
2022/04/24 04:53:28;;;;;;;15.05;12.95;;;13.60;81.00;;;;;;5132667;27;20027;-53
2022/04/24 04:55:54;;;;;;;15.40;13.25;;;13.70;81.40;;;;;;5133196;27;20015;-55
2022/04/24 04:58:20;;;;;;;16.08;12.45;;;13.60;80.60;;;;;;5132488;27;20023;-53
2022/04/24 05:00:45;;;;;;;15.70;12.13;;;13.70;80.60;;;;;;5114431;27;20016;-59
2022/04/24 05:03:11;;;;;;;15.90;12.68;;;13.80;80.90;;;;;;5113350;27;20368;-53
2022/04/24 05:05:37;;;;;;;16.02;12.82;;;13.80;80.00;;;;;;5113770;27;20019;-59
2022/04/24 05:08:02;;;;;;;15.15;12.10;;;13.80;79.70;;;;;;5132026;27;20023;-53
2022/04/24 05:10:28;;;;;;;16.50;13.75;;;13.80;79.60;;;;;;5113565;27;20440;-53
2022/04/24 05:12:54;;;;;;;16.48;14.02;;;13.90;79.30;;;;;;5132442;27;20524;-54
2022/04/24 05:15:21;;;;;;;16.48;14.57;;;14.10;78.90;;;;;;5113360;27;20019;-53
2022/04/24 05:17:48;;;;;;;15.80;12.88;;;14.30;78.40;;;;;;5132308;27;20030;-58
2022/04/24 05:20:14;;;;;;;16.88;13.18;;;14.50;77.70;;;;;;5131830;27;20019;-58
2022/04/24 05:22:41;;;;;;;16.15;12.85;;;14.70;76.50;;;;;;5132658;27;20042;-53
2022/04/24 05:25:09;;;;;;;14.18;12.68;;;14.80;75.50;;;;;;5113720;27;20422;-71
2022/04/24 05:27:36;;;;;;;15.57;12.30;;;14.90;74.60;;;;;;5132931;27;20031;-56
2022/04/24 05:30:05;;;;;;;16.10;12.75;;;14.90;73.90;;;;;;5114215;27;20031;-58
2022/04/24 05:32:49;;;;;;;14.45;12.95;;;14.90;73.60;;;;;;5096989;27;20023;-56
2022/04/24 05:35:15;;;;;;;;;;;14.90;73.60;;;;;;5132194;27;20067;-56
2022/04/24 05:37:41;;;;;;;14.82;11.75;;;15.00;73.00;;;;;;5114119;27;19907;-56
2022/04/24 05:40:08;;;;;;;19.98;12.10;;;15.00;72.80;;;;;;5113707;27;20539;-71
2022/04/24 05:42:34;;;;;;;15.90;11.70;;;15.00;72.50;;;;;;5132060;27;20507;-54
2022/04/24 05:45:01;;;;;;;13.55;11.98;;;15.00;72.40;;;;;;5113558;27;20519;-56
2022/04/24 05:47:27;;;;;;;12.68;10.63;;;15.00;72.20;;;;;;5130948;27;20022;-53
2022/04/24 05:49:53;;;;;;;13.25;10.82;;;15.00;72.00;;;;;;5132216;27;20019;-56
2022/04/24 05:52:18;;;;;;;12.55;10.63;;;15.10;71.90;;;;;;5131518;27;20495;-64
2022/04/24 05:54:44;;;;;;;13.15;10.85;;;15.30;71.80;;;;;;5113803;28;20332;-53
2022/04/24 05:57:10;;;;;;;14.60;10.10;;;15.50;71.30;;;;;;5131558;27;20488;-52
2022/04/24 05:59:36;;;;;;;14.35;9.80;;;15.70;70.60;;;;;;5132357;27;20379;-54
2022/04/24 06:02:02;;;;;;;11.38;8.88;;;15.90;69.30;;;;;;5113601;28;20023;-55
2022/04/24 06:04:29;;;;;;;9.20;7.85;;;16.00;68.80;;;;;;5112637;28;20023;-55
2022/04/24 06:09:45;;;;;;;14.05;7.72;;;16.20;67.80;;;;;;5131709;28;20068;-49
2022/04/24 06:12:11;;;;;;;9.20;6.75;;;16.30;66.90;;;;;;5130937;28;20059;-57
2022/04/24 06:14:37;;;;;;;10.98;6.72;;;16.50;66.60;;;;;;5131803;27;20047;-55
2022/04/24 06:17:03;;;;;;;7.75;6.43;;;16.60;65.80;;;;;;5131569;27;20435;-55
2022/04/24 06:19:29;;;;;;;8.65;6.57;;;16.70;65.90;;;;;;5112931;28;20319;-56
2022/04/24 06:21:55;;;;;;;10.27;6.70;;;16.80;65.40;;;;;;5113374;28;20065;-51
2022/04/24 06:24:21;;;;;;;10.15;6.40;;;16.90;65.20;;;;;;5110904;28;20054;-60
2022/04/24 06:26:47;;;;;;;13.80;5.80;;;16.90;64.40;;;;;;5112095;28;20391;-57
2022/04/24 06:29:13;;;;;;;9.18;5.35;;;16.80;64.40;;;;;;5130861;27;20054;-62
2022/04/24 06:31:39;;;;;;;7.18;5.35;;;16.70;64.10;;;;;;5131119;28;20059;-52
2022/04/24 06:34:05;;;;;;;8.70;5.20;;;16.50;64.50;;;;;;5131204;27;20019;-55
2022/04/24 06:36:31;;;;;;;8.45;5.78;;;16.40;64.90;;;;;;5130612;28;20023;-58
2022/04/24 06:39:00;;;;;;;6.78;4.97;;;16.30;65.30;;;;;;5109339;28;20365;-55
2022/04/24 06:41:26;;;;;;;9.07;4.47;;;16.30;65.40;;;;;;5112110;28;20055;-58
2022/04/24 06:43:53;;;;;;;6.22;4.40;;;16.20;65.40;;;;;;5131857;28;20072;-56
2022/04/24 06:46:19;;;;;;;7.90;4.95;;;16.10;65.40;;;;;;5112613;28;20110;-55
2022/04/24 06:48:45;;;;;;;5.95;3.70;;;16.20;65.50;;;;;;5131650;27;20027;-55
2022/04/24 06:51:13;;;;;;;7.93;3.75;;;16.20;65.10;;;;;;5112183;28;20027;-70
2022/04/24 06:53:39;;;;;;;6.95;3.53;;;16.20;65.10;;;;;;5112855;28;20383;-54
2022/04/24 06:56:05;;;;;;;10.30;3.75;;;16.20;64.90;;;;;;5131595;28;20023;-53
2022/04/24 06:58:31;;;;;;;8.32;4.13;;;16.30;64.80;;;;;;5112539;27;20380;-51
2022/04/24 07:00:57;;;;;;;7.15;3.45;;;16.40;64.60;;;;;;5135157;27;20061;-61
2022/04/24 07:03:26;;;;;;;9.88;3.90;;;16.40;64.10;;;;;;5116140;27;20470;-54
2022/04/24 07:06:00;;;;;;;4.80;3.00;;;16.50;63.90;;;;;;5134835;27;20019;-53
2022/04/24 07:08:29;;;;;;;4.90;3.40;;;16.50;63.50;;;;;;5115476;27;20027;-65
2022/04/24 07:10:55;;;;;;;6.45;3.53;;;16.40;63.50;;;;;;5134678;27;20182;-56
2022/04/24 07:13:22;;;;;;;12.32;3.42;;;16.40;63.30;;;;;;5115954;27;20136;-59
2022/04/24 07:15:47;;;;;;;7.88;3.25;;;16.40;63.50;;;;;;5134597;27;20023;-64
2022/04/24 07:18:13;;;;;;;10.68;3.30;;;16.50;63.40;;;;;;5132788;27;20384;-61
2022/04/24 07:20:39;;;;;;;6.32;2.92;;;16.40;63.00;;;;;;5133672;27;20019;-59
2022/04/24 07:23:05;;;;;;;12.07;2.80;;;16.50;62.80;;;;;;5113154;27;20056;-59
2022/04/24 07:25:39;;;;;;;7.88;2.50;;;16.50;62.80;;;;;;5112941;27;20685;-63
2022/04/24 07:28:05;;;;;;;7.03;2.58;;;16.50;62.80;;;;;;5132128;27;20027;-63
2022/04/24 07:30:30;;;;;;;7.60;3.00;;;16.60;63.00;;;;;;5112132;27;20470;-55
2022/04/24 07:32:57;;;;;;;8.25;2.90;;;16.50;63.10;;;;;;5129740;27;20046;-61
2022/04/24 07:35:33;;;;;;;5.75;2.50;;;16.50;63.20;;;;;;5128134;27;20023;-54
2022/04/24 07:37:59;;;;;;;7.68;2.35;;;16.50;63.30;;;;;;5130186;27;20066;-51
2022/04/24 07:40:27;;;;;;;7.63;2.70;;;16.60;63.00;;;;;;5093492;27;20480;-58
2022/04/24 07:42:57;;;;;;;9.60;3.05;;;16.60;63.00;;;;;;5091874;28;20516;-54
2022/04/24 07:45:23;;;;;;;9.40;2.70;;;16.80;62.80;;;;;;5085996;28;20020;-53
2022/04/24 07:47:49;;;;;;;7.70;2.97;;;16.90;62.50;;;;;;5087621;28;20469;-57
2022/04/24 07:50:17;;;;;;;9.07;2.90;;;17.00;62.20;;;;;;5085495;28;20024;-65
2022/04/24 07:52:43;;;;;;;6.55;2.55;;;17.00;62.10;;;;;;5087627;28;20089;-62
2022/04/24 07:55:14;;;;;;;8.80;2.80;;;17.10;61.70;;;;;;5087052;28;20028;-58
2022/04/24 07:57:40;;;;;;;8.70;2.63;;;17.20;61.30;;;;;;5088679;28;20025;-64
2022/04/24 08:00:10;;;;;;;6.93;2.70;;;17.30;60.90;;;;;;5087872;28;20486;-54
2022/04/24 08:02:46;;;;;;;14.18;2.80;;;17.50;60.50;;;;;;5071903;28;20115;-53
2022/04/24 08:05:22;;;;;;;8.13;3.03;;;17.50;60.10;;;;;;5086455;28;20017;-69
2022/04/24 08:07:48;;;;;;;7.50;2.60;;;17.50;59.90;;;;;;5089622;28;20032;-55
2022/04/24 08:10:15;;;;;;;7.47;2.55;;;17.50;60.00;;;;;;5084787;28;20046;-66
2022/04/24 08:12:41;;;;;;;9.73;3.13;;;17.40;60.10;;;;;;5090286;28;20142;-57
2022/04/24 08:15:08;;;;;;;11.90;3.15;;;17.40;60.20;;;;;;5090819;28;20099;-62
2022/04/24 08:17:34;;;;;;;7.78;2.75;;;17.50;60.20;;;;;;5091865;28;20202;-49
2022/04/24 08:20:00;;;;;;;10.15;2.30;;;17.60;60.00;;;;;;5091302;28;20377;-58
2022/04/24 08:22:25;;;;;;;8.70;2.70;;;17.60;59.80;;;;;;5090460;28;20024;-52
2022/04/24 08:24:51;;;;;;;12.85;3.10;;;17.60;59.70;;;;;;5092448;28;20032;-55
2022/04/24 08:27:18;;;;;;;10.23;2.90;;;17.60;59.70;;;;;;5090317;28;20055;-58
2022/04/24 08:29:44;;;;;;;8.20;3.35;;;17.70;59.80;;;;;;5091136;28;20031;-53
2022/04/24 08:32:10;;;;;;;11.85;2.90;;;17.80;59.70;;;;;;5091935;28;20024;-55
2022/04/24 08:34:35;;;;;;;12.07;2.65;;;17.80;59.50;;;;;;5091350;28;20024;-57
2022/04/24 08:37:01;;;;;;;8.52;3.00;;;17.90;59.50;;;;;;5090845;28;20388;-55
2022/04/24 08:39:32;;;;;;;9.88;2.95;;;17.90;59.40;;;;;;5091549;28;20020;-59
2022/04/24 08:41:58;;;;;;;10.25;2.28;;;17.90;59.30;;;;;;5090277;28;20048;-56
2022/04/24 08:44:26;;;;;;;12.02;2.80;;;17.90;59.20;;;;;;5089203;28;20023;-65
2022/04/24 08:46:53;;;;;;;8.25;2.63;;;17.90;59.60;;;;;;5092819;28;20032;-65
2022/04/24 08:49:20;;;;;;;8.43;2.65;;;17.90;59.50;;;;;;5091096;28;20381;-61
2022/04/24 08:51:46;;;;;;;8.05;2.78;;;17.90;59.50;;;;;;5090169;28;20028;-61
2022/04/24 08:54:14;;;;;;;10.45;2.50;;;18.00;59.30;;;;;;5090616;28;20032;-62
2022/04/24 08:56:58;;;;;;;9.57;2.70;;;18.00;59.20;;;;;;5091269;28;20020;-68
2022/04/24 08:59:27;;;;;;;7.95;2.58;;;18.00;59.10;;;;;;5089247;28;20024;-69
2022/04/24 09:02:05;;;;;;;8.45;2.60;;;17.90;59.20;;;;;;5089446;28;20024;-62
2022/04/24 09:04:33;;;;;;;9.05;2.60;;;18.00;59.20;;;;;;5088782;28;20020;-60
2022/04/24 09:07:09;;;;;;;13.55;2.95;;;18.00;59.30;;;;;;5091118;28;20050;-59
2022/04/24 09:09:44;;;;;;;13.63;3.67;;;18.00;59.10;;;;;;5072928;28;20105;-63
2022/04/24 09:12:11;;;;;;;8.65;2.67;;;18.10;59.70;;;;;;5091538;28;20024;-59
2022/04/24 09:14:37;;;;;;;11.30;3.13;;;18.20;58.70;;;;;;5090713;28;20429;-58
2022/04/24 09:17:15;;;;;;;9.80;2.70;;;18.20;58.50;;;;;;5073040;28;20024;-58
2022/04/24 09:19:41;;;;;;;16.27;3.08;;;18.10;58.30;;;;;;5091172;28;20027;-61
2022/04/24 09:22:11;;;;;;;8.68;3.15;;;18.10;58.30;;;;;;5089324;28;20107;-60
2022/04/24 09:25:04;;;;;;;10.27;3.03;;;18.20;58.20;;;;;;5089256;28;20024;-56
2022/04/24 09:27:32;;;;;;;12.57;3.15;;;18.20;57.80;;;;;;5088141;28;20090;-58
2022/04/24 09:30:13;;;;;;;18.27;3.10;;;18.30;57.60;;;;;;5089702;28;20055;-54
2022/04/24 09:32:50;;;;;;;11.50;2.90;;;18.40;57.30;;;;;;5089566;28;20192;-56
2022/04/24 09:35:30;;;;;;;14.48;2.72;;;18.40;57.10;;;;;;5091322;28;20069;-66
2022/04/24 09:38:09;;;;;;;18.33;3.47;;;18.40;56.50;;;;;;5091148;28;20024;-55
2022/04/24 09:40:45;;;;;;;10.50;2.95;;;18.40;56.60;;;;;;5090720;28;20039;-61
2022/04/24 09:43:12;;;;;;;12.45;3.10;;;18.40;56.70;;;;;;5126093;27;20070;-55
2022/04/24 09:45:46;;;;;;;18.17;4.05;;;18.40;56.50;;;;;;5131673;27;20080;-57
2022/04/24 09:48:16;;;;;;;;;;;18.40;56.50;;;;;;5114000;27;20448;-56
2022/04/24 09:50:42;;;;;;;14.57;3.30;;;18.50;56.10;;;;;;5131990;27;19904;-59
2022/04/24 09:53:16;;;;;;;12.18;3.42;;;18.50;56.30;;;;;;5113437;27;20080;-57
2022/04/24 09:55:44;;;;;;;15.35;3.65;;;18.50;56.50;;;;;;5131794;27;20102;-53
2022/04/24 09:58:13;;;;;;;10.10;3.38;;;18.50;56.60;;;;;;5113377;28;20034;-60
2022/04/24 10:00:41;;;;;;;14.10;2.95;;;18.60;56.10;;;;;;5131635;27;20024;-62
2022/04/24 10:03:08;;;;;;;15.75;3.53;;;18.60;55.90;;;;;;5113195;28;20075;-55
2022/04/24 10:05:38;;;;;;;8.88;2.58;;;18.60;55.70;;;;;;5131155;27;20027;-56
2022/04/24 10:08:06;;;;;;;9.13;2.53;;;18.60;55.50;;;;;;5132037;27;20471;-56
2022/04/24 10:10:31;;;;;;;10.75;3.03;;;18.70;55.30;;;;;;5113246;28;20031;-58
2022/04/24 10:13:00;;;;;;;12.07;2.50;;;18.70;55.50;;;;;;5131945;28;20093;-58
2022/04/24 10:15:29;;;;;;;17.15;2.78;;;18.70;55.40;;;;;;5112834;28;20111;-56
2022/04/24 10:17:57;;;;;;;11.05;2.95;;;18.70;55.50;;;;;;5132299;27;20027;-55
2022/04/24 10:20:48;;;;;;;10.30;3.15;;;18.60;55.50;;;;;;5131482;27;20019;-58
2022/04/24 10:23:14;;;;;;;11.65;3.35;;;18.60;55.60;;;;;;5112940;28;20019;-59
2022/04/24 10:25:42;;;;;;;11.55;3.00;;;18.70;55.50;;;;;;5131379;28;20034;-56
2022/04/24 10:28:16;;;;;;;15.13;4.97;;;18.70;55.20;;;;;;5113583;28;20027;-55
2022/04/24 10:30:45;;;;;;;14.18;4.55;;;18.70;55.20;;;;;;5112769;28;20023;-58
2022/04/24 10:33:15;;;;;;;14.43;3.70;;;18.80;54.70;;;;;;5131901;27;20076;-54
2022/04/24 10:36:20;;;;;;;14.90;3.97;;;18.80;54.60;;;;;;5116674;27;20061;-54
2022/04/24 10:38:57;;;;;;;9.68;4.45;;;18.90;53.80;;;;;;5031715;28;20029;-52
2022/04/24 10:41:24;;;;;;;7.40;3.55;;;18.90;53.30;;;;;;5015470;28;20037;-72
2022/04/24 10:43:57;;;;;;;8.20;3.10;;;18.90;53.20;;;;;;5015994;28;20507;-56
2022/04/24 10:46:33;;;;;;;8.18;2.85;;;19.00;52.70;;;;;;5031814;28;20029;-69
2022/04/24 10:49:12;;;;;;;5.15;2.15;;;19.10;52.30;;;;;;5032448;28;20029;-57
2022/04/24 10:51:42;;;;;;;6.78;2.10;;;19.10;51.60;;;;;;5032021;28;20029;-55
2022/04/24 10:54:13;;;;;;;6.85;2.33;;;19.10;51.20;;;;;;5032382;28;20040;-52
2022/04/24 10:56:49;;;;;;;8.10;2.88;;;19.30;51.00;;;;;;5031895;28;20406;-55
2022/04/24 11:02:09;;;;;;;6.85;2.47;;;19.90;49.50;;;;;;5032135;28;20028;-60
2022/04/24 11:04:41;;;;;;;7.22;3.20;;;20.20;48.20;;;;;;5014959;28;20052;-54
2022/04/24 11:07:07;;;;;;;6.15;2.25;;;20.50;47.60;;;;;;5032406;28;20410;-57
2022/04/24 11:09:36;;;;;;;7.63;2.00;;;20.70;46.80;;;;;;5068775;27;20091;-57
2022/04/24 11:12:07;;;;;;;7.25;2.17;;;20.80;45.30;;;;;;5116977;27;20481;-55
2022/04/24 11:14:34;;;;;;;5.00;2.00;;;20.70;45.00;;;;;;5116515;27;20023;-58
2022/04/24 11:17:02;;;;;;;13.30;2.83;;;20.70;45.00;;;;;;5135210;27;20019;-57
2022/04/24 11:19:30;;;;;;;8.60;2.10;;;20.80;45.00;;;;;;5116003;27;20019;-55
2022/04/24 11:22:10;;;;;;;7.60;2.50;;;21.20;44.70;;;;;;5116729;27;20034;-54
2022/04/24 11:24:40;;;;;;;7.93;2.22;;;21.50;43.90;;;;;;5116545;27;20030;-59
2022/04/24 11:27:12;;;;;;;11.63;2.78;;;21.90;43.50;;;;;;5135451;27;20019;-58
2022/04/24 11:29:39;;;;;;;9.73;2.40;;;22.00;41.20;;;;;;5116078;27;20027;-52
2022/04/24 11:32:09;;;;;;;7.85;1.80;;;21.90;41.00;;;;;;5116620;27;20133;-59
2022/04/24 11:34:36;;;;;;;8.32;1.60;;;21.80;40.40;;;;;;5134324;27;20487;-55
2022/04/24 11:37:04;;;;;;;3.38;1.52;;;21.70;39.40;;;;;;5134737;27;20034;-54
2022/04/24 11:39:31;;;;;;;2.83;1.30;;;21.70;39.80;;;;;;5098872;27;20031;-55
2022/04/24 11:41:58;;;;;;;5.82;1.95;;;21.70;38.90;;;;;;5116263;27;20046;-55
2022/04/24 11:50:15;;;;;;;6.20;1.70;;;22.00;36.20;;;;;;5135022;27;20042;-58
2022/04/24 11:58:21;;;;;;;5.97;1.50;;;22.10;36.30;;;;;;5134943;27;20175;-53
2022/04/24 12:00:46;;;;;;;5.88;1.60;;;21.90;35.70;;;;;;5133763;27;20509;-58
2022/04/24 12:03:12;;;;;;;5.63;1.70;;;21.80;36.00;;;;;;5134186;27;20035;-55
2022/04/24 12:05:38;;;;;;;6.60;4.45;;;21.70;36.40;;;;;;5115191;27;20383;-56
2022/04/24 12:08:05;;;;;;;13.65;5.38;;;21.60;45.00;;;;;;5115805;27;20027;-56
2022/04/24 12:10:31;;;;;;;9.93;7.45;;;21.30;48.10;;;;;;5115150;27;20027;-57
2022/04/24 12:13:06;;;;;;;13.95;7.28;;;21.00;50.80;;;;;;5115812;27;20075;-58
2022/04/24 12:15:32;;;;;;;9.23;6.78;;;20.70;53.70;;;;;;5114929;27;20452;-56
2022/04/24 12:17:59;;;;;;;15.68;7.32;;;20.80;54.50;;;;;;5115675;27;20103;-57
2022/04/24 12:20:54;;;;;;;7.90;5.57;;;20.90;55.30;;;;;;5115413;27;20072;-58
2022/04/24 12:23:20;;;;;;;9.70;5.13;;;21.30;53.40;;;;;;5133881;27;20107;-51
2022/04/24 12:25:56;;;;;;;7.50;4.90;;;21.60;52.60;;;;;;5114845;27;20031;-58
2022/04/24 12:28:32;;;;;;;6.05;4.20;;;21.50;50.70;;;;;;5133872;27;20099;-53
2022/04/24 12:31:01;;;;;;;15.95;4.20;;;21.50;49.90;;;;;;5115389;27;20110;-56
2022/04/24 12:33:32;;;;;;;10.77;4.55;;;21.40;49.20;;;;;;5115252;27;20111;-55
2022/04/24 12:36:09;;;;;;;5.88;3.45;;;21.30;48.60;;;;;;5133879;27;20047;-57
2022/04/24 12:38:35;;;;;;;4.35;3.65;;;21.20;46.70;;;;;;5132914;27;20026;-54
2022/04/24 12:41:01;;;;;;;19.45;3.10;;;21.30;47.10;;;;;;5115332;27;20378;-55
2022/04/24 12:43:29;;;;;;;4.63;2.90;;;21.30;45.90;;;;;;5133459;27;20151;-54
2022/04/24 12:45:57;;;;;;;5.38;2.30;;;21.20;45.90;;;;;;5133082;27;20039;-57
2022/04/24 12:48:24;;;;;;;3.95;2.10;;;21.20;44.80;;;;;;5115013;27;20019;-53
2022/04/24 12:50:54;;;;;;;3.85;2.38;;;21.10;44.10;;;;;;5114417;27;20080;-54
2022/04/24 12:53:20;;;;;;;4.50;2.33;;;21.00;44.60;;;;;;5114852;27;20026;-57
2022/04/24 12:55:47;;;;;;;4.28;2.47;;;20.90;44.70;;;;;;5113878;27;20053;-58
2022/04/24 12:58:16;;;;;;;5.97;2.83;;;20.90;45.90;;;;;;5114652;27;20023;-57